sensor_id;sensor_type;location;lat;lon;timestamp;P1;durP1;ratioP1;P2;durP2;ratioP2
77978;SDS011;67169;50.268;8.694;2023-04-01T00:00:25;1.63;;;0.70;;
77978;SDS011;67169;50.268;8.694;2023-04-01T00:02:53;4.45;;;1.65;;
77978;SDS011;67169;50.268;8.694;2023-04-01T00:05:19;6.00;;;1.27;;
77978;SDS011;67169;50.268;8.694;2023-04-01T00:07:46;4.43;;;1.05;;
77978;SDS011;67169;50.268;8.694;2023-04-01T00:10:13;3.33;;;1.02;;
77978;SDS011;67169;50.268;8.694;2023-04-01T00:12:40;4.32;;;1.10;;
77978;SDS011;67169;50.268;8.694;2023-04-01T00:15:08;4.10;;;0.85;;
77978;SDS011;67169;50.268;8.694;2023-04-01T00:17:36;2.17;;;0.80;;
77978;SDS011;67169;50.268;8.694;2023-04-01T00:20:05;3.33;;;1.20;;
77978;SDS011;67169;50.268;8.694;2023-04-01T00:22:33;5.57;;;1.00;;
77978;SDS011;67169;50.268;8.694;2023-04-01T00:25:00;3.58;;;1.77;;
77978;SDS011;67169;50.268;8.694;2023-04-01T00:27:27;2.58;;;0.93;;
77978;SDS011;67169;50.268;8.694;2023-04-01T00:29:53;3.55;;;1.10;;
77978;SDS011;67169;50.268;8.694;2023-04-01T00:32:20;4.13;;;1.48;;
77978;SDS011;67169;50.268;8.694;2023-04-01T00:34:49;3.25;;;1.40;;
77978;SDS011;67169;50.268;8.694;2023-04-01T00:37:17;3.90;;;1.02;;
77978;SDS011;67169;50.268;8.694;2023-04-01T00:39:44;4.82;;;1.30;;
77978;SDS011;67169;50.268;8.694;2023-04-01T00:42:11;4.40;;;1.40;;
77978;SDS011;67169;50.268;8.694;2023-04-01T00:44:39;5.55;;;1.05;;
77978;SDS011;67169;50.268;8.694;2023-04-01T00:47:06;3.30;;;1.27;;
77978;SDS011;67169;50.268;8.694;2023-04-01T00:49:33;6.07;;;1.80;;
77978;SDS011;67169;50.268;8.694;2023-04-01T00:52:02;3.60;;;1.38;;
77978;SDS011;67169;50.268;8.694;2023-04-01T00:54:33;4.13;;;1.38;;
77978;SDS011;67169;50.268;8.694;2023-04-01T00:57:03;5.03;;;1.88;;
77978;SDS011;67169;50.268;8.694;2023-04-01T00:59:32;3.95;;;1.27;;
77978;SDS011;67169;50.268;8.694;2023-04-01T01:02:01;2.65;;;1.20;;
77978;SDS011;67169;50.268;8.694;2023-04-01T01:04:29;2.75;;;1.02;;
77978;SDS011;67169;50.268;8.694;2023-04-01T01:07:00;4.57;;;1.15;;
77978;SDS011;67169;50.268;8.694;2023-04-01T01:09:41;3.25;;;1.42;;
77978;SDS011;67169;50.268;8.694;2023-04-01T01:12:12;5.63;;;1.23;;
77978;SDS011;67169;50.268;8.694;2023-04-01T01:14:47;4.90;;;1.35;;
77978;SDS011;67169;50.268;8.694;2023-04-01T01:17:21;4.30;;;1.00;;
77978;SDS011;67169;50.268;8.694;2023-04-01T01:20:00;3.20;;;1.40;;
77978;SDS011;67169;50.268;8.694;2023-04-01T01:22:45;1.70;;;0.88;;
77978;SDS011;67169;50.268;8.694;2023-04-01T01:25:30;3.47;;;0.73;;
77978;SDS011;67169;50.268;8.694;2023-04-01T01:28:10;2.22;;;0.80;;
77978;SDS011;67169;50.268;8.694;2023-04-01T01:30:48;4.05;;;1.20;;
77978;SDS011;67169;50.268;8.694;2023-04-01T01:33:46;2.10;;;1.15;;
77978;SDS011;67169;50.268;8.694;2023-04-01T01:36:23;3.63;;;0.77;;
77978;SDS011;67169;50.268;8.694;2023-04-01T01:38:54;3.95;;;1.23;;
77978;SDS011;67169;50.268;8.694;2023-04-01T01:43:49;1.88;;;1.02;;
77978;SDS011;67169;50.268;8.694;2023-04-01T01:46:20;5.03;;;1.00;;
77978;SDS011;67169;50.268;8.694;2023-04-01T01:48:50;4.57;;;1.17;;
77978;SDS011;67169;50.268;8.694;2023-04-01T01:51:18;4.85;;;1.50;;
77978;SDS011;67169;50.268;8.694;2023-04-01T01:53:47;2.83;;;1.50;;
77978;SDS011;67169;50.268;8.694;2023-04-01T01:58:43;4.25;;;1.00;;
77978;SDS011;67169;50.268;8.694;2023-04-01T02:01:14;3.95;;;1.15;;
77978;SDS011;67169;50.268;8.694;2023-04-01T02:03:43;2.47;;;1.20;;
77978;SDS011;67169;50.268;8.694;2023-04-01T02:08:42;3.33;;;1.17;;
77978;SDS011;67169;50.268;8.694;2023-04-01T02:11:13;4.72;;;1.20;;
77978;SDS011;67169;50.268;8.694;2023-04-01T02:13:45;4.18;;;1.48;;
77978;SDS011;67169;50.268;8.694;2023-04-01T02:16:17;3.08;;;1.08;;
77978;SDS011;67169;50.268;8.694;2023-04-01T02:18:49;5.50;;;1.13;;
77978;SDS011;67169;50.268;8.694;2023-04-01T02:21:20;4.60;;;1.38;;
77978;SDS011;67169;50.268;8.694;2023-04-01T02:23:48;7.45;;;1.25;;
77978;SDS011;67169;50.268;8.694;2023-04-01T02:26:19;0.52;;;0.52;;
77978;SDS011;67169;50.268;8.694;2023-04-01T02:28:46;4.68;;;1.15;;
77978;SDS011;67169;50.268;8.694;2023-04-01T02:31:15;3.45;;;1.02;;
77978;SDS011;67169;50.268;8.694;2023-04-01T02:33:42;1.98;;;1.00;;
77978;SDS011;67169;50.268;8.694;2023-04-01T02:36:11;4.35;;;1.15;;
77978;SDS011;67169;50.268;8.694;2023-04-01T02:38:39;6.15;;;0.73;;
77978;SDS011;67169;50.268;8.694;2023-04-01T02:41:06;3.47;;;1.20;;
77978;SDS011;67169;50.268;8.694;2023-04-01T02:43:34;2.50;;;0.85;;
77978;SDS011;67169;50.268;8.694;2023-04-01T02:46:00;3.58;;;1.88;;
77978;SDS011;67169;50.268;8.694;2023-04-01T02:48:27;4.90;;;1.42;;
77978;SDS011;67169;50.268;8.694;2023-04-01T02:50:54;3.55;;;0.77;;
77978;SDS011;67169;50.268;8.694;2023-04-01T02:53:20;1.15;;;0.95;;
77978;SDS011;67169;50.268;8.694;2023-04-01T02:55:47;3.15;;;0.57;;
77978;SDS011;67169;50.268;8.694;2023-04-01T02:58:15;3.33;;;1.92;;
77978;SDS011;67169;50.268;8.694;2023-04-01T03:00:43;3.55;;;0.90;;
77978;SDS011;67169;50.268;8.694;2023-04-01T03:05:37;3.53;;;1.02;;
77978;SDS011;67169;50.268;8.694;2023-04-01T03:08:04;1.50;;;0.60;;
77978;SDS011;67169;50.268;8.694;2023-04-01T03:10:31;4.32;;;1.10;;
77978;SDS011;67169;50.268;8.694;2023-04-01T03:12:57;5.25;;;1.13;;
77978;SDS011;67169;50.268;8.694;2023-04-01T03:15:24;4.15;;;1.10;;
77978;SDS011;67169;50.268;8.694;2023-04-01T03:17:52;5.47;;;1.20;;
77978;SDS011;67169;50.268;8.694;2023-04-01T03:20:18;2.90;;;0.60;;
77978;SDS011;67169;50.268;8.694;2023-04-01T03:22:45;3.75;;;0.70;;
77978;SDS011;67169;50.268;8.694;2023-04-01T03:25:12;1.85;;;0.60;;
77978;SDS011;67169;50.268;8.694;2023-04-01T03:27:38;1.15;;;0.60;;
77978;SDS011;67169;50.268;8.694;2023-04-01T03:30:06;1.92;;;0.77;;
77978;SDS011;67169;50.268;8.694;2023-04-01T03:32:33;2.58;;;1.00;;
77978;SDS011;67169;50.268;8.694;2023-04-01T03:35:01;2.05;;;1.60;;
77978;SDS011;67169;50.268;8.694;2023-04-01T03:37:27;2.40;;;1.20;;
77978;SDS011;67169;50.268;8.694;2023-04-01T03:39:53;4.07;;;0.95;;
77978;SDS011;67169;50.268;8.694;2023-04-01T03:42:20;2.97;;;0.98;;
77978;SDS011;67169;50.268;8.694;2023-04-01T03:44:46;2.22;;;0.65;;
77978;SDS011;67169;50.268;8.694;2023-04-01T03:47:13;3.22;;;0.90;;
77978;SDS011;67169;50.268;8.694;2023-04-01T03:49:39;3.38;;;1.13;;
77978;SDS011;67169;50.268;8.694;2023-04-01T03:52:09;1.83;;;1.10;;
77978;SDS011;67169;50.268;8.694;2023-04-01T03:54:36;4.13;;;1.17;;
77978;SDS011;67169;50.268;8.694;2023-04-01T03:57:03;2.00;;;0.60;;
77978;SDS011;67169;50.268;8.694;2023-04-01T03:59:30;1.83;;;0.90;;
77978;SDS011;67169;50.268;8.694;2023-04-01T04:01:57;2.70;;;0.93;;
77978;SDS011;67169;50.268;8.694;2023-04-01T04:04:23;3.47;;;1.08;;
77978;SDS011;67169;50.268;8.694;2023-04-01T04:06:51;0.93;;;0.77;;
77978;SDS011;67169;50.268;8.694;2023-04-01T04:09:18;2.95;;;1.13;;
77978;SDS011;67169;50.268;8.694;2023-04-01T04:11:45;2.65;;;0.82;;
77978;SDS011;67169;50.268;8.694;2023-04-01T04:14:11;2.35;;;0.80;;
77978;SDS011;67169;50.268;8.694;2023-04-01T04:16:38;4.43;;;1.13;;
77978;SDS011;67169;50.268;8.694;2023-04-01T04:19:04;2.83;;;1.05;;
77978;SDS011;67169;50.268;8.694;2023-04-01T04:21:31;4.43;;;1.15;;
77978;SDS011;67169;50.268;8.694;2023-04-01T04:23:58;2.65;;;0.80;;
77978;SDS011;67169;50.268;8.694;2023-04-01T04:26:26;3.20;;;1.00;;
77978;SDS011;67169;50.268;8.694;2023-04-01T04:28:53;4.55;;;1.60;;
77978;SDS011;67169;50.268;8.694;2023-04-01T04:31:20;5.18;;;1.13;;
77978;SDS011;67169;50.268;8.694;2023-04-01T04:33:47;3.63;;;1.02;;
77978;SDS011;67169;50.268;8.694;2023-04-01T04:36:15;5.45;;;1.80;;
77978;SDS011;67169;50.268;8.694;2023-04-01T04:38:41;2.50;;;0.77;;
77978;SDS011;67169;50.268;8.694;2023-04-01T04:41:08;1.33;;;0.63;;
77978;SDS011;67169;50.268;8.694;2023-04-01T04:43:38;1.88;;;0.50;;
77978;SDS011;67169;50.268;8.694;2023-04-01T04:46:05;4.25;;;0.77;;
77978;SDS011;67169;50.268;8.694;2023-04-01T04:48:32;3.28;;;1.13;;
77978;SDS011;67169;50.268;8.694;2023-04-01T04:50:58;4.45;;;1.00;;
77978;SDS011;67169;50.268;8.694;2023-04-01T04:53:25;1.88;;;0.88;;
77978;SDS011;67169;50.268;8.694;2023-04-01T04:55:52;4.85;;;1.00;;
77978;SDS011;67169;50.268;8.694;2023-04-01T04:58:19;5.20;;;1.25;;
77978;SDS011;67169;50.268;8.694;2023-04-01T05:00:47;3.38;;;0.65;;
77978;SDS011;67169;50.268;8.694;2023-04-01T05:03:13;5.05;;;0.68;;
77978;SDS011;67169;50.268;8.694;2023-04-01T05:05:47;2.28;;;0.70;;
77978;SDS011;67169;50.268;8.694;2023-04-01T05:08:15;1.52;;;0.50;;
77978;SDS011;67169;50.268;8.694;2023-04-01T05:10:41;4.20;;;0.90;;
77978;SDS011;67169;50.268;8.694;2023-04-01T05:13:08;2.67;;;1.30;;
77978;SDS011;67169;50.268;8.694;2023-04-01T05:15:34;2.70;;;0.90;;
77978;SDS011;67169;50.268;8.694;2023-04-01T05:18:03;3.92;;;1.08;;
77978;SDS011;67169;50.268;8.694;2023-04-01T05:20:30;2.70;;;0.95;;
77978;SDS011;67169;50.268;8.694;2023-04-01T05:22:56;4.30;;;1.23;;
77978;SDS011;67169;50.268;8.694;2023-04-01T05:25:23;2.47;;;0.73;;
77978;SDS011;67169;50.268;8.694;2023-04-01T05:27:50;2.80;;;1.25;;
77978;SDS011;67169;50.268;8.694;2023-04-01T05:30:17;7.05;;;0.93;;
77978;SDS011;67169;50.268;8.694;2023-04-01T05:32:44;1.10;;;0.77;;
77978;SDS011;67169;50.268;8.694;2023-04-01T05:35:12;5.70;;;1.33;;
77978;SDS011;67169;50.268;8.694;2023-04-01T05:37:38;1.58;;;0.75;;
77978;SDS011;67169;50.268;8.694;2023-04-01T05:40:05;2.88;;;0.80;;
77978;SDS011;67169;50.268;8.694;2023-04-01T05:42:33;2.00;;;0.60;;
77978;SDS011;67169;50.268;8.694;2023-04-01T05:45:00;4.00;;;0.70;;
77978;SDS011;67169;50.268;8.694;2023-04-01T05:47:27;4.85;;;0.98;;
77978;SDS011;67169;50.268;8.694;2023-04-01T05:49:53;1.08;;;0.50;;
77978;SDS011;67169;50.268;8.694;2023-04-01T05:52:21;2.80;;;0.85;;
77978;SDS011;67169;50.268;8.694;2023-04-01T05:54:48;4.38;;;0.82;;
77978;SDS011;67169;50.268;8.694;2023-04-01T05:57:14;4.13;;;1.48;;
77978;SDS011;67169;50.268;8.694;2023-04-01T05:59:41;4.85;;;1.15;;
77978;SDS011;67169;50.268;8.694;2023-04-01T06:02:08;3.03;;;0.80;;
77978;SDS011;67169;50.268;8.694;2023-04-01T06:04:37;7.15;;;1.00;;
77978;SDS011;67169;50.268;8.694;2023-04-01T06:07:09;2.28;;;0.50;;
77978;SDS011;67169;50.268;8.694;2023-04-01T06:09:39;2.97;;;0.55;;
77978;SDS011;67169;50.268;8.694;2023-04-01T06:12:14;2.58;;;0.90;;
77978;SDS011;67169;50.268;8.694;2023-04-01T06:14:51;3.15;;;0.80;;
77978;SDS011;67169;50.268;8.694;2023-04-01T06:17:30;2.55;;;0.68;;
77978;SDS011;67169;50.268;8.694;2023-04-01T06:20:11;3.13;;;0.63;;
77978;SDS011;67169;50.268;8.694;2023-04-01T06:22:54;1.50;;;0.75;;
77978;SDS011;67169;50.268;8.694;2023-04-01T06:25:45;4.32;;;0.63;;
77978;SDS011;67169;50.268;8.694;2023-04-01T06:31:20;2.72;;;1.15;;
77978;SDS011;67169;50.268;8.694;2023-04-01T06:33:55;1.92;;;0.70;;
77978;SDS011;67169;50.268;8.694;2023-04-01T06:39:24;2.03;;;0.55;;
77978;SDS011;67169;50.268;8.694;2023-04-01T06:42:03;4.68;;;0.80;;
77978;SDS011;67169;50.268;8.694;2023-04-01T06:44:41;2.70;;;0.70;;
77978;SDS011;67169;50.268;8.694;2023-04-01T06:47:20;0.70;;;0.40;;
77978;SDS011;67169;50.268;8.694;2023-04-01T06:49:58;2.17;;;0.70;;
77978;SDS011;67169;50.268;8.694;2023-04-01T06:52:31;3.40;;;0.82;;
77978;SDS011;67169;50.268;8.694;2023-04-01T06:55:12;0.70;;;0.65;;
77978;SDS011;67169;50.268;8.694;2023-04-01T06:57:54;2.72;;;0.60;;
77978;SDS011;67169;50.268;8.694;2023-04-01T07:00:26;1.33;;;0.43;;
77978;SDS011;67169;50.268;8.694;2023-04-01T07:02:57;2.00;;;0.90;;
77978;SDS011;67169;50.268;8.694;2023-04-01T07:05:31;1.10;;;0.30;;
77978;SDS011;67169;50.268;8.694;2023-04-01T07:08:01;1.13;;;0.50;;
77978;SDS011;67169;50.268;8.694;2023-04-01T07:10:32;1.52;;;0.40;;
77978;SDS011;67169;50.268;8.694;2023-04-01T07:13:04;0.50;;;0.50;;
77978;SDS011;67169;50.268;8.694;2023-04-01T07:15:38;2.10;;;0.65;;
77978;SDS011;67169;50.268;8.694;2023-04-01T07:18:09;1.17;;;0.30;;
77978;SDS011;67169;50.268;8.694;2023-04-01T07:20:41;2.33;;;1.00;;
77978;SDS011;67169;50.268;8.694;2023-04-01T07:23:10;2.50;;;0.45;;
77978;SDS011;67169;50.268;8.694;2023-04-01T07:25:43;1.75;;;0.40;;
77978;SDS011;67169;50.268;8.694;2023-04-01T07:28:15;2.63;;;0.50;;
77978;SDS011;67169;50.268;8.694;2023-04-01T07:30:45;1.33;;;0.47;;
77978;SDS011;67169;50.268;8.694;2023-04-01T07:33:24;2.85;;;1.02;;
77978;SDS011;67169;50.268;8.694;2023-04-01T07:36:00;3.45;;;1.05;;
77978;SDS011;67169;50.268;8.694;2023-04-01T07:38:35;2.55;;;0.82;;
77978;SDS011;67169;50.268;8.694;2023-04-01T07:41:12;1.48;;;0.35;;
77978;SDS011;67169;50.268;8.694;2023-04-01T07:43:55;0.63;;;0.30;;
77978;SDS011;67169;50.268;8.694;2023-04-01T07:46:35;1.30;;;0.40;;
77978;SDS011;67169;50.268;8.694;2023-04-01T07:49:14;1.40;;;0.30;;
77978;SDS011;67169;50.268;8.694;2023-04-01T07:51:46;0.90;;;0.32;;
77978;SDS011;67169;50.268;8.694;2023-04-01T07:54:22;3.78;;;0.75;;
77978;SDS011;67169;50.268;8.694;2023-04-01T07:56:54;0.85;;;0.35;;
77978;SDS011;67169;50.268;8.694;2023-04-01T07:59:30;2.67;;;0.45;;
77978;SDS011;67169;50.268;8.694;2023-04-01T08:02:06;0.95;;;0.60;;
77978;SDS011;67169;50.268;8.694;2023-04-01T08:04:45;1.10;;;0.45;;
77978;SDS011;67169;50.268;8.694;2023-04-01T08:07:20;3.03;;;0.50;;
77978;SDS011;67169;50.268;8.694;2023-04-01T08:09:53;3.17;;;0.55;;
77978;SDS011;67169;50.268;8.694;2023-04-01T08:12:27;0.60;;;0.40;;
77978;SDS011;67169;50.268;8.694;2023-04-01T08:15:06;0.30;;;0.30;;
77978;SDS011;67169;50.268;8.694;2023-04-01T08:17:48;2.90;;;0.57;;
77978;SDS011;67169;50.268;8.694;2023-04-01T08:20:27;1.55;;;0.32;;
77978;SDS011;67169;50.268;8.694;2023-04-01T08:22:59;0.38;;;0.22;;
77978;SDS011;67169;50.268;8.694;2023-04-01T08:25:30;4.82;;;0.50;;
77978;SDS011;67169;50.268;8.694;2023-04-01T08:28:00;0.80;;;0.30;;
77978;SDS011;67169;50.268;8.694;2023-04-01T08:30:38;0.30;;;0.30;;
77978;SDS011;67169;50.268;8.694;2023-04-01T08:33:10;0.32;;;0.20;;
77978;SDS011;67169;50.268;8.694;2023-04-01T08:35:40;0.43;;;0.40;;
77978;SDS011;67169;50.268;8.694;2023-04-01T08:38:13;1.65;;;0.55;;
77978;SDS011;67169;50.268;8.694;2023-04-01T08:41:01;1.00;;;0.20;;
77978;SDS011;67169;50.268;8.694;2023-04-01T08:43:45;2.13;;;0.35;;
77978;SDS011;67169;50.268;8.694;2023-04-01T08:46:34;0.73;;;0.20;;
77978;SDS011;67169;50.268;8.694;2023-04-01T08:49:18;0.70;;;0.17;;
77978;SDS011;67169;50.268;8.694;2023-04-01T08:52:20;0.70;;;0.25;;
77978;SDS011;67169;50.268;8.694;2023-04-01T08:55:04;0.32;;;0.30;;
77978;SDS011;67169;50.268;8.694;2023-04-01T08:57:56;0.65;;;0.28;;
77978;SDS011;67169;50.268;8.694;2023-04-01T09:00:37;0.55;;;0.40;;
77978;SDS011;67169;50.268;8.694;2023-04-01T09:03:17;1.02;;;0.28;;
77978;SDS011;67169;50.268;8.694;2023-04-01T09:06:04;0.20;;;0.10;;
77978;SDS011;67169;50.268;8.694;2023-04-01T09:09:05;0.30;;;0.22;;
77978;SDS011;67169;50.268;8.694;2023-04-01T09:12:01;0.20;;;0.20;;
77978;SDS011;67169;50.268;8.694;2023-04-01T09:17:53;0.52;;;0.50;;
77978;SDS011;67169;50.268;8.694;2023-04-01T09:26:41;0.32;;;0.30;;
77978;SDS011;67169;50.268;8.694;2023-04-01T09:29:26;0.30;;;0.20;;
77978;SDS011;67169;50.268;8.694;2023-04-01T09:32:12;0.85;;;0.17;;
77978;SDS011;67169;50.268;8.694;2023-04-01T09:34:54;0.57;;;0.43;;
77978;SDS011;67169;50.268;8.694;2023-04-01T09:37:28;0.20;;;0.20;;
77978;SDS011;67169;50.268;8.694;2023-04-01T09:40:17;1.15;;;0.50;;
77978;SDS011;67169;50.268;8.694;2023-04-01T09:42:45;0.43;;;0.30;;
77978;SDS011;67169;50.268;8.694;2023-04-01T09:45:44;0.98;;;0.30;;
77978;SDS011;67169;50.268;8.694;2023-04-01T09:51:37;0.75;;;0.47;;
77978;SDS011;67169;50.268;8.694;2023-04-01T09:54:16;0.30;;;0.30;;
77978;SDS011;67169;50.268;8.694;2023-04-01T09:57:13;0.57;;;0.30;;
77978;SDS011;67169;50.268;8.694;2023-04-01T10:00:06;0.35;;;0.30;;
77978;SDS011;67169;50.268;8.694;2023-04-01T10:03:02;0.47;;;0.35;;
77978;SDS011;67169;50.268;8.694;2023-04-01T10:09:03;0.77;;;0.35;;
77978;SDS011;67169;50.268;8.694;2023-04-01T10:12:24;0.35;;;0.28;;
77978;SDS011;67169;50.268;8.694;2023-04-01T10:15:33;1.00;;;0.30;;
77978;SDS011;67169;50.268;8.694;2023-04-01T10:18:30;0.47;;;0.30;;
77978;SDS011;67169;50.268;8.694;2023-04-01T10:21:22;0.57;;;0.40;;
77978;SDS011;67169;50.268;8.694;2023-04-01T10:27:07;0.40;;;0.32;;
77978;SDS011;67169;50.268;8.694;2023-04-01T10:33:17;1.50;;;0.50;;
77978;SDS011;67169;50.268;8.694;2023-04-01T10:36:21;0.45;;;0.45;;
77978;SDS011;67169;50.268;8.694;2023-04-01T10:39:10;2.22;;;0.50;;
77978;SDS011;67169;50.268;8.694;2023-04-01T10:56:56;0.30;;;0.30;;
77978;SDS011;67169;50.268;8.694;2023-04-01T10:59:36;0.50;;;0.50;;
77978;SDS011;67169;50.268;8.694;2023-04-01T11:05:50;1.15;;;0.70;;
77978;SDS011;67169;50.268;8.694;2023-04-01T11:08:54;0.57;;;0.47;;
77978;SDS011;67169;50.268;8.694;2023-04-01T11:17:54;1.05;;;0.45;;
77978;SDS011;67169;50.268;8.694;2023-04-01T11:20:47;1.02;;;0.60;;
77978;SDS011;67169;50.268;8.694;2023-04-01T11:23:30;0.63;;;0.45;;
77978;SDS011;67169;50.268;8.694;2023-04-01T11:26:18;1.40;;;0.40;;
77978;SDS011;67169;50.268;8.694;2023-04-01T11:32:12;1.25;;;0.55;;
77978;SDS011;67169;50.268;8.694;2023-04-01T11:34:58;1.55;;;0.45;;
77978;SDS011;67169;50.268;8.694;2023-04-01T11:37:40;1.45;;;0.30;;
77978;SDS011;67169;50.268;8.694;2023-04-01T11:40:18;1.33;;;0.38;;
77978;SDS011;67169;50.268;8.694;2023-04-01T11:42:54;0.35;;;0.35;;
77978;SDS011;67169;50.268;8.694;2023-04-01T11:45:29;0.70;;;0.60;;
77978;SDS011;67169;50.268;8.694;2023-04-01T11:51:05;0.82;;;0.50;;
77978;SDS011;67169;50.268;8.694;2023-04-01T11:53:49;0.73;;;0.40;;
77978;SDS011;67169;50.268;8.694;2023-04-01T11:59:31;1.13;;;0.30;;
77978;SDS011;67169;50.268;8.694;2023-04-01T12:02:11;1.05;;;0.43;;
77978;SDS011;67169;50.268;8.694;2023-04-01T12:04:49;1.52;;;0.47;;
77978;SDS011;67169;50.268;8.694;2023-04-01T12:07:27;1.48;;;0.40;;
77978;SDS011;67169;50.268;8.694;2023-04-01T12:10:12;0.50;;;0.50;;
77978;SDS011;67169;50.268;8.694;2023-04-01T12:12:46;1.88;;;0.60;;
77978;SDS011;67169;50.268;8.694;2023-04-01T12:15:22;2.30;;;1.10;;
77978;SDS011;67169;50.268;8.694;2023-04-01T12:17:56;1.00;;;0.90;;
77978;SDS011;67169;50.268;8.694;2023-04-01T12:20:36;1.52;;;0.55;;
77978;SDS011;67169;50.268;8.694;2023-04-01T12:23:13;1.83;;;0.60;;
77978;SDS011;67169;50.268;8.694;2023-04-01T12:28:50;0.55;;;0.50;;
77978;SDS011;67169;50.268;8.694;2023-04-01T12:31:31;1.45;;;0.52;;
77978;SDS011;67169;50.268;8.694;2023-04-01T12:34:13;1.02;;;0.38;;
77978;SDS011;67169;50.268;8.694;2023-04-01T12:37:03;2.38;;;0.40;;
77978;SDS011;67169;50.268;8.694;2023-04-01T12:39:49;0.65;;;0.65;;
77978;SDS011;67169;50.268;8.694;2023-04-01T12:42:33;1.85;;;1.13;;
77978;SDS011;67169;50.268;8.694;2023-04-01T12:45:27;1.85;;;0.80;;
77978;SDS011;67169;50.268;8.694;2023-04-01T12:48:02;0.73;;;0.40;;
77978;SDS011;67169;50.268;8.694;2023-04-01T12:50:58;0.32;;;0.32;;
77978;SDS011;67169;50.268;8.694;2023-04-01T12:53:45;1.30;;;0.88;;
77978;SDS011;67169;50.268;8.694;2023-04-01T12:56:28;0.82;;;0.55;;
77978;SDS011;67169;50.268;8.694;2023-04-01T12:59:16;2.67;;;0.32;;
77978;SDS011;67169;50.268;8.694;2023-04-01T13:02:00;1.05;;;0.95;;
77978;SDS011;67169;50.268;8.694;2023-04-01T13:10:27;0.93;;;0.30;;
77978;SDS011;67169;50.268;8.694;2023-04-01T13:13:15;0.50;;;0.30;;
77978;SDS011;67169;50.268;8.694;2023-04-01T13:16:05;1.95;;;0.40;;
77978;SDS011;67169;50.268;8.694;2023-04-01T13:18:39;1.38;;;0.50;;
77978;SDS011;67169;50.268;8.694;2023-04-01T13:21:16;0.30;;;0.30;;
77978;SDS011;67169;50.268;8.694;2023-04-01T13:23:54;0.40;;;0.38;;
77978;SDS011;67169;50.268;8.694;2023-04-01T13:26:28;0.52;;;0.40;;
77978;SDS011;67169;50.268;8.694;2023-04-01T13:29:03;0.70;;;0.30;;
77978;SDS011;67169;50.268;8.694;2023-04-01T13:31:38;0.88;;;0.73;;
77978;SDS011;67169;50.268;8.694;2023-04-01T13:34:19;1.02;;;1.00;;
77978;SDS011;67169;50.268;8.694;2023-04-01T13:37:04;0.40;;;0.38;;
77978;SDS011;67169;50.268;8.694;2023-04-01T13:39:49;1.00;;;0.85;;
77978;SDS011;67169;50.268;8.694;2023-04-01T13:42:28;0.20;;;0.20;;
77978;SDS011;67169;50.268;8.694;2023-04-01T13:45:00;0.60;;;0.60;;
77978;SDS011;67169;50.268;8.694;2023-04-01T13:47:34;0.65;;;0.40;;
77978;SDS011;67169;50.268;8.694;2023-04-01T13:50:26;0.55;;;0.30;;
77978;SDS011;67169;50.268;8.694;2023-04-01T13:53:22;1.02;;;0.30;;
77978;SDS011;67169;50.268;8.694;2023-04-01T13:56:13;0.50;;;0.50;;
77978;SDS011;67169;50.268;8.694;2023-04-01T13:58:53;0.70;;;0.50;;
77978;SDS011;67169;50.268;8.694;2023-04-01T14:01:38;0.50;;;0.50;;
77978;SDS011;67169;50.268;8.694;2023-04-01T14:07:06;1.20;;;0.73;;
77978;SDS011;67169;50.268;8.694;2023-04-01T14:12:39;0.70;;;0.55;;
77978;SDS011;67169;50.268;8.694;2023-04-01T14:15:25;1.90;;;0.43;;
77978;SDS011;67169;50.268;8.694;2023-04-01T14:18:09;1.30;;;1.10;;
77978;SDS011;67169;50.268;8.694;2023-04-01T14:21:02;0.80;;;0.40;;
77978;SDS011;67169;50.268;8.694;2023-04-01T14:23:53;0.90;;;0.60;;
77978;SDS011;67169;50.268;8.694;2023-04-01T14:26:37;0.75;;;0.30;;
77978;SDS011;67169;50.268;8.694;2023-04-01T14:29:26;1.30;;;0.35;;
77978;SDS011;67169;50.268;8.694;2023-04-01T14:32:02;0.22;;;0.22;;
77978;SDS011;67169;50.268;8.694;2023-04-01T14:34:45;0.20;;;0.20;;
77978;SDS011;67169;50.268;8.694;2023-04-01T14:37:30;1.33;;;0.30;;
77978;SDS011;67169;50.268;8.694;2023-04-01T14:40:15;1.42;;;0.30;;
77978;SDS011;67169;50.268;8.694;2023-04-01T14:43:09;0.38;;;0.20;;
77978;SDS011;67169;50.268;8.694;2023-04-01T14:45:54;0.75;;;0.50;;
77978;SDS011;67169;50.268;8.694;2023-04-01T14:48:32;1.70;;;0.55;;
77978;SDS011;67169;50.268;8.694;2023-04-01T14:51:08;0.57;;;0.40;;
77978;SDS011;67169;50.268;8.694;2023-04-01T14:53:43;0.88;;;0.88;;
77978;SDS011;67169;50.268;8.694;2023-04-01T14:59:06;0.45;;;0.45;;
77978;SDS011;67169;50.268;8.694;2023-04-01T15:01:43;1.38;;;0.30;;
77978;SDS011;67169;50.268;8.694;2023-04-01T15:07:16;0.65;;;0.50;;
77978;SDS011;67169;50.268;8.694;2023-04-01T15:10:04;1.23;;;0.20;;
77978;SDS011;67169;50.268;8.694;2023-04-01T15:12:46;0.50;;;0.50;;
77978;SDS011;67169;50.268;8.694;2023-04-01T15:15:29;1.23;;;0.82;;
77978;SDS011;67169;50.268;8.694;2023-04-01T15:18:07;0.95;;;0.80;;
77978;SDS011;67169;50.268;8.694;2023-04-01T15:23:45;1.88;;;1.15;;
77978;SDS011;67169;50.268;8.694;2023-04-01T15:26:29;1.02;;;0.70;;
77978;SDS011;67169;50.268;8.694;2023-04-01T15:29:22;0.75;;;0.50;;
77978;SDS011;67169;50.268;8.694;2023-04-01T15:31:59;0.50;;;0.50;;
77978;SDS011;67169;50.268;8.694;2023-04-01T15:34:32;0.68;;;0.60;;
77978;SDS011;67169;50.268;8.694;2023-04-01T15:37:08;1.20;;;0.65;;
77978;SDS011;67169;50.268;8.694;2023-04-01T15:39:48;0.50;;;0.50;;
77978;SDS011;67169;50.268;8.694;2023-04-01T15:42:28;2.25;;;1.00;;
77978;SDS011;67169;50.268;8.694;2023-04-01T15:45:11;2.03;;;0.57;;
77978;SDS011;67169;50.268;8.694;2023-04-01T15:47:45;2.67;;;0.95;;
77978;SDS011;67169;50.268;8.694;2023-04-01T15:50:27;1.58;;;0.93;;
77978;SDS011;67169;50.268;8.694;2023-04-01T15:53:25;0.30;;;0.30;;
77978;SDS011;67169;50.268;8.694;2023-04-01T15:56:06;1.83;;;0.80;;
77978;SDS011;67169;50.268;8.694;2023-04-01T15:58:49;0.60;;;0.32;;
77978;SDS011;67169;50.268;8.694;2023-04-01T16:01:26;0.70;;;0.55;;
77978;SDS011;67169;50.268;8.694;2023-04-01T16:04:02;1.15;;;0.38;;
77978;SDS011;67169;50.268;8.694;2023-04-01T16:06:48;0.20;;;0.20;;
77978;SDS011;67169;50.268;8.694;2023-04-01T16:09:31;0.35;;;0.30;;
77978;SDS011;67169;50.268;8.694;2023-04-01T16:12:15;0.50;;;0.50;;
77978;SDS011;67169;50.268;8.694;2023-04-01T16:14:48;0.77;;;0.35;;
77978;SDS011;67169;50.268;8.694;2023-04-01T16:17:25;0.60;;;0.40;;
77978;SDS011;67169;50.268;8.694;2023-04-01T16:20:02;1.42;;;0.63;;
77978;SDS011;67169;50.268;8.694;2023-04-01T16:22:45;1.50;;;0.80;;
77978;SDS011;67169;50.268;8.694;2023-04-01T16:25:19;1.25;;;1.00;;
77978;SDS011;67169;50.268;8.694;2023-04-01T16:27:54;0.55;;;0.52;;
77978;SDS011;67169;50.268;8.694;2023-04-01T16:30:35;1.45;;;0.70;;
77978;SDS011;67169;50.268;8.694;2023-04-01T16:33:04;1.88;;;0.40;;
77978;SDS011;67169;50.268;8.694;2023-04-01T16:35:41;0.73;;;0.50;;
77978;SDS011;67169;50.268;8.694;2023-04-01T16:38:15;0.60;;;0.60;;
77978;SDS011;67169;50.268;8.694;2023-04-01T16:40:50;0.63;;;0.52;;
77978;SDS011;67169;50.268;8.694;2023-04-01T16:43:28;1.95;;;1.05;;
77978;SDS011;67169;50.268;8.694;2023-04-01T16:46:12;0.50;;;0.40;;
77978;SDS011;67169;50.268;8.694;2023-04-01T16:48:58;1.55;;;0.57;;
77978;SDS011;67169;50.268;8.694;2023-04-01T16:51:30;0.20;;;0.20;;
77978;SDS011;67169;50.268;8.694;2023-04-01T16:54:04;0.38;;;0.30;;
77978;SDS011;67169;50.268;8.694;2023-04-01T16:56:38;1.05;;;0.57;;
77978;SDS011;67169;50.268;8.694;2023-04-01T16:59:13;0.35;;;0.20;;
77978;SDS011;67169;50.268;8.694;2023-04-01T17:01:47;1.50;;;0.70;;
77978;SDS011;67169;50.268;8.694;2023-04-01T17:04:19;0.30;;;0.30;;
77978;SDS011;67169;50.268;8.694;2023-04-01T17:06:55;2.20;;;0.45;;
77978;SDS011;67169;50.268;8.694;2023-04-01T17:12:06;0.50;;;0.50;;
77978;SDS011;67169;50.268;8.694;2023-04-01T17:14:41;0.32;;;0.32;;
77978;SDS011;67169;50.268;8.694;2023-04-01T17:17:26;1.90;;;1.05;;